createdAt,value
2019-03-09T00:02:10.039Z,8.41
2019-03-09T00:04:38.275Z,8.33
2019-03-09T00:07:06.468Z,8.38
2019-03-09T00:09:34.676Z,8.48
2019-03-09T00:12:02.767Z,8.42
2019-03-09T00:14:31.067Z,8.50
2019-03-09T00:16:59.208Z,8.50
2019-03-09T00:19:27.268Z,8.63
2019-03-09T00:21:55.409Z,8.59
2019-03-09T00:24:45.818Z,8.54
2019-03-09T00:27:30.324Z,8.62
2019-03-09T00:30:24.197Z,8.56
2019-03-09T00:32:52.528Z,8.56
2019-03-09T00:35:20.558Z,8.54
2019-03-09T00:37:48.687Z,8.48
2019-03-09T00:40:16.720Z,8.36
2019-03-09T00:42:44.698Z,8.38
2019-03-09T00:45:13.118Z,8.40
2019-03-09T00:47:41.414Z,8.38
2019-03-09T00:50:10.570Z,8.33
2019-03-09T00:52:39.824Z,8.48
2019-03-09T00:55:09.775Z,8.47
2019-03-09T00:57:38.223Z,8.46
2019-03-09T01:00:11.418Z,8.46
2019-03-09T01:02:39.527Z,8.53
2019-03-09T01:05:09.336Z,8.53
2019-03-09T01:07:37.578Z,8.52
2019-03-09T01:10:08.605Z,8.56
2019-03-09T01:12:36.722Z,8.66
2019-03-09T01:15:05.528Z,8.67
2019-03-09T01:17:33.715Z,8.66
2019-03-09T01:20:03.158Z,8.74
2019-03-09T01:22:33.577Z,8.68
2019-03-09T01:25:01.607Z,8.78
2019-03-09T01:27:30.699Z,8.77
2019-03-09T01:29:59.159Z,8.77
2019-03-09T01:32:27.305Z,8.78
2019-03-09T01:34:56.418Z,8.84
2019-03-09T01:37:25.667Z,8.79
2019-03-09T01:39:54.063Z,8.77
2019-03-09T01:42:22.069Z,8.80
2019-03-09T01:44:50.171Z,8.81
2019-03-09T01:47:18.588Z,8.86
2019-03-09T01:49:46.620Z,8.82
2019-03-09T01:52:14.770Z,8.76
2019-03-09T01:54:43.114Z,8.72
2019-03-09T01:57:11.220Z,8.74
2019-03-09T01:59:39.560Z,8.77
2019-03-09T02:02:07.627Z,8.85
2019-03-09T02:04:35.802Z,8.87
2019-03-09T02:07:03.840Z,8.84
2019-03-09T02:09:32.111Z,8.83
2019-03-09T02:12:00.154Z,8.83
2019-03-09T02:14:28.256Z,8.78
2019-03-09T02:16:56.730Z,8.78
2019-03-09T02:19:25.074Z,8.85
2019-03-09T02:21:53.136Z,8.81
2019-03-09T02:24:21.288Z,8.83
2019-03-09T02:26:49.409Z,8.88
2019-03-09T02:29:17.544Z,8.94
2019-03-09T02:31:45.714Z,8.91
2019-03-09T02:34:14.113Z,9.00
2019-03-09T02:36:42.270Z,8.95
2019-03-09T02:39:28.568Z,8.93
2019-03-09T02:41:58.559Z,8.96
2019-03-09T02:44:26.683Z,8.98
2019-03-09T02:46:54.866Z,8.96
2019-03-09T02:49:22.900Z,8.94
2019-03-09T02:51:51.079Z,8.91
2019-03-09T02:54:19.186Z,8.95
2019-03-09T02:56:47.296Z,8.89
2019-03-09T02:59:15.358Z,8.89
2019-03-09T03:02:06.137Z,8.90
2019-03-09T03:04:36.155Z,8.93
2019-03-09T03:07:05.289Z,8.96
2019-03-09T03:09:35.212Z,8.96
2019-03-09T03:12:03.378Z,8.96
2019-03-09T03:14:31.822Z,8.95
2019-03-09T03:17:00.194Z,9.09
2019-03-09T03:19:28.284Z,9.09
2019-03-09T03:21:56.489Z,9.09
2019-03-09T03:24:24.584Z,9.05
2019-03-09T03:26:52.549Z,9.10
2019-03-09T03:29:20.748Z,9.16
2019-03-09T03:31:49.185Z,9.13
2019-03-09T03:34:17.240Z,9.18
2019-03-09T03:36:45.233Z,9.16
2019-03-09T03:39:13.388Z,9.20
2019-03-09T03:41:41.514Z,9.16
2019-03-09T03:44:09.590Z,9.22
2019-03-09T03:46:37.701Z,9.21
2019-03-09T03:49:05.739Z,9.18
2019-03-09T03:51:33.752Z,9.24
2019-03-09T03:54:01.866Z,9.23
2019-03-09T03:56:29.959Z,9.24
2019-03-09T03:58:57.996Z,9.20
2019-03-09T04:01:26.127Z,9.26
2019-03-09T04:03:54.548Z,9.11
2019-03-09T04:06:22.658Z,8.99
2019-03-09T04:08:50.851Z,9.12
2019-03-09T04:11:19.305Z,9.18
2019-03-09T04:13:47.307Z,9.21
2019-03-09T04:16:15.370Z,9.25
2019-03-09T04:18:43.404Z,9.25
2019-03-09T04:21:11.720Z,9.34
2019-03-09T04:23:40.158Z,9.33
2019-03-09T04:26:08.586Z,9.31
2019-03-09T04:28:36.582Z,9.35
2019-03-09T04:31:04.657Z,9.27
2019-03-09T04:33:32.723Z,9.30
2019-03-09T04:36:00.695Z,9.36
2019-03-09T04:38:28.806Z,9.51
2019-03-09T04:40:56.955Z,9.41
2019-03-09T04:43:24.957Z,9.46
2019-03-09T04:45:54.066Z,9.35
2019-03-09T04:48:22.076Z,9.39
2019-03-09T04:50:50.014Z,9.30
2019-03-09T04:53:18.072Z,9.27
2019-03-09T04:55:46.145Z,9.37
2019-03-09T04:58:14.135Z,9.28
2019-03-09T05:00:42.115Z,9.31
2019-03-09T05:03:10.721Z,9.34
2019-03-09T05:05:38.838Z,9.26
2019-03-09T05:08:46.670Z,9.30
2019-03-09T05:11:23.779Z,9.21
2019-03-09T05:14:22.734Z,9.05
2019-03-09T05:16:51.042Z,9.02
2019-03-09T05:19:19.348Z,9.04
2019-03-09T05:21:47.440Z,8.98
2019-03-09T05:24:15.460Z,8.95
2019-03-09T05:26:44.950Z,8.95
2019-03-09T05:29:13.250Z,8.92
2019-03-09T05:31:42.325Z,8.86
2019-03-09T05:34:10.330Z,8.78
2019-03-09T05:36:38.372Z,8.66
2019-03-09T05:39:06.405Z,8.50
2019-03-09T05:41:35.556Z,8.43
2019-03-09T05:44:03.867Z,8.35
2019-03-09T05:46:32.016Z,8.37
2019-03-09T05:49:00.043Z,8.27
2019-03-09T05:51:28.212Z,8.24
2019-03-09T05:53:56.182Z,8.17
2019-03-09T05:56:24.492Z,8.12
2019-03-09T05:58:52.979Z,8.21
2019-03-09T06:01:22.097Z,8.17
2019-03-09T06:03:50.069Z,8.14
2019-03-09T06:06:19.210Z,8.10
2019-03-09T06:08:49.537Z,8.07
2019-03-09T06:11:19.677Z,8.10
2019-03-09T06:13:47.681Z,8.06
2019-03-09T06:16:15.653Z,8.05
2019-03-09T06:18:43.687Z,8.05
2019-03-09T06:21:11.738Z,8.05
2019-03-09T06:23:39.921Z,8.03
2019-03-09T06:26:09.121Z,8.00
2019-03-09T06:28:37.257Z,8.05
2019-03-09T06:31:05.351Z,8.14
2019-03-09T06:33:35.504Z,8.20
2019-03-09T06:36:45.683Z,8.24
2019-03-09T06:39:30.504Z,8.32
2019-03-09T06:42:44.326Z,8.39
2019-03-09T06:45:14.684Z,8.41
2019-03-09T06:47:43.046Z,8.33
2019-03-09T06:50:14.261Z,8.49
2019-03-09T06:52:42.373Z,8.37
2019-03-09T06:55:11.333Z,8.39
2019-03-09T06:57:39.389Z,8.48
2019-03-09T07:00:40.405Z,8.46
2019-03-09T07:03:09.304Z,8.58
2019-03-09T07:05:37.366Z,8.63
2019-03-09T07:08:05.431Z,8.58
2019-03-09T07:10:34.511Z,8.66
2019-03-09T07:13:02.665Z,8.66
2019-03-09T07:15:33.818Z,8.82
2019-03-09T07:18:08.724Z,8.89
2019-03-09T07:20:37.065Z,8.92
2019-03-09T07:23:06.769Z,8.99
2019-03-09T07:25:35.008Z,8.90
2019-03-09T07:28:09.859Z,8.94
2019-03-09T07:30:37.794Z,8.91
2019-03-09T07:33:06.224Z,9.04
2019-03-09T07:35:34.302Z,9.05
2019-03-09T07:38:02.305Z,9.17
2019-03-09T07:40:31.162Z,9.42
2019-03-09T07:42:59.506Z,9.57
2019-03-09T07:45:27.984Z,9.57
2019-03-09T07:47:57.010Z,9.58
2019-03-09T07:50:25.186Z,9.73
2019-03-09T07:52:54.628Z,9.89
2019-03-09T07:55:22.677Z,10.05
2019-03-09T07:57:51.135Z,10.01
2019-03-09T08:00:19.684Z,9.78
2019-03-09T08:02:47.764Z,10.01
2019-03-09T08:05:15.828Z,10.26
2019-03-09T08:07:44.272Z,10.37
2019-03-09T08:10:14.298Z,10.37
2019-03-09T08:12:43.763Z,10.77
2019-03-09T08:15:14.329Z,10.65
2019-03-09T08:17:42.511Z,10.23
2019-03-09T08:20:10.899Z,10.59
2019-03-09T08:22:39.013Z,10.79
2019-03-09T08:25:08.604Z,10.65
2019-03-09T08:27:37.318Z,10.59
2019-03-09T08:30:12.459Z,10.96
2019-03-09T08:32:40.489Z,11.01
2019-03-09T08:35:08.711Z,10.94
2019-03-09T08:37:37.895Z,10.99
2019-03-09T08:40:08.633Z,11.07
2019-03-09T08:42:36.818Z,11.15
2019-03-09T08:45:05.296Z,11.30
2019-03-09T08:47:33.402Z,11.20
2019-03-09T08:50:01.992Z,10.99
2019-03-09T08:52:30.184Z,10.91
2019-03-09T08:54:58.160Z,10.82
2019-03-09T08:57:26.422Z,10.99
2019-03-09T08:59:54.483Z,11.00
2019-03-09T09:02:23.489Z,11.14
2019-03-09T09:04:52.961Z,11.04
2019-03-09T09:07:21.337Z,10.97
2019-03-09T09:09:49.524Z,11.14
2019-03-09T09:12:17.974Z,10.92
2019-03-09T09:14:46.523Z,10.81
2019-03-09T09:17:15.039Z,10.83
2019-03-09T09:19:43.214Z,11.03
2019-03-09T09:22:11.338Z,11.12
2019-03-09T09:24:40.109Z,11.45
2019-03-09T09:27:08.136Z,11.04
2019-03-09T09:29:36.464Z,10.95
2019-03-09T09:32:05.728Z,11.11
2019-03-09T09:34:34.314Z,11.00
2019-03-09T09:37:03.000Z,10.93
2019-03-09T09:39:31.181Z,11.13
2019-03-09T09:41:59.731Z,11.33
2019-03-09T09:44:29.883Z,11.28
2019-03-09T09:46:58.328Z,11.52
2019-03-09T09:49:26.536Z,11.41
2019-03-09T09:51:54.721Z,11.33
2019-03-09T09:54:23.013Z,11.43
2019-03-09T09:56:51.780Z,11.35
2019-03-09T09:59:19.887Z,11.51
2019-03-09T10:01:47.902Z,11.45
2019-03-09T10:04:16.238Z,11.08
2019-03-09T10:06:44.156Z,11.13
2019-03-09T10:09:12.245Z,11.15
2019-03-09T10:11:40.460Z,11.16
2019-03-09T10:14:10.706Z,11.19
2019-03-09T10:16:38.736Z,11.16
2019-03-09T10:19:06.945Z,11.28
2019-03-09T10:21:35.014Z,11.38
2019-03-09T10:24:03.425Z,11.41
2019-03-09T10:26:31.540Z,11.28
2019-03-09T10:28:59.872Z,11.26
2019-03-09T10:31:27.995Z,11.55
2019-03-09T10:33:56.152Z,11.58
2019-03-09T10:36:25.563Z,11.53
2019-03-09T10:38:54.138Z,11.55
2019-03-09T10:41:22.550Z,11.51
2019-03-09T10:43:51.993Z,11.81
2019-03-09T10:46:20.074Z,12.33
2019-03-09T10:48:48.216Z,12.61
2019-03-09T10:51:16.190Z,12.87
2019-03-09T10:53:44.617Z,13.00
2019-03-09T10:56:12.758Z,12.77
2019-03-09T10:58:41.852Z,12.25
2019-03-09T11:01:10.213Z,12.41
2019-03-09T11:03:38.523Z,12.82
2019-03-09T11:06:06.553Z,12.94
2019-03-09T11:08:35.151Z,12.66
2019-03-09T11:11:03.485Z,12.65
2019-03-09T11:13:31.760Z,12.48
2019-03-09T11:15:59.942Z,12.75
2019-03-09T11:18:28.612Z,12.86
2019-03-09T11:20:56.971Z,13.27
2019-03-09T11:23:25.193Z,13.54
2019-03-09T11:25:53.330Z,13.30
2019-03-09T11:28:22.455Z,13.15
2019-03-09T11:30:50.600Z,13.02
2019-03-09T11:33:18.773Z,13.09
2019-03-09T11:35:46.851Z,13.19
2019-03-09T11:38:14.870Z,13.28
2019-03-09T11:40:42.902Z,13.00
2019-03-09T11:43:10.935Z,12.94
2019-03-09T11:45:39.262Z,13.15
2019-03-09T11:48:07.723Z,12.80
2019-03-09T11:50:35.780Z,12.70
2019-03-09T11:53:04.123Z,12.52
2019-03-09T11:55:33.418Z,12.49
2019-03-09T11:58:01.475Z,12.32
2019-03-09T12:00:32.244Z,12.46
2019-03-09T12:03:00.280Z,12.44
2019-03-09T12:05:28.507Z,12.14
2019-03-09T12:07:56.683Z,12.06
2019-03-09T12:10:24.727Z,12.05
2019-03-09T12:12:52.891Z,11.96
2019-03-09T12:15:20.939Z,12.01
2019-03-09T12:17:50.682Z,12.04
2019-03-09T12:20:20.352Z,11.92
2019-03-09T12:22:48.774Z,11.94
2019-03-09T12:25:16.852Z,12.07
2019-03-09T12:27:44.892Z,11.92
2019-03-09T12:30:14.625Z,11.82
2019-03-09T12:32:43.203Z,11.95
2019-03-09T12:35:11.255Z,11.93
2019-03-09T12:37:39.529Z,12.08
2019-03-09T12:40:11.328Z,12.20
2019-03-09T12:42:39.480Z,12.31
2019-03-09T12:45:08.974Z,12.13
2019-03-09T12:47:37.264Z,12.07
2019-03-09T12:50:09.911Z,12.32
2019-03-09T12:52:38.038Z,12.34
2019-03-09T12:55:06.256Z,12.71
2019-03-09T12:57:34.481Z,12.79
2019-03-09T13:00:03.749Z,13.01
2019-03-09T13:02:31.930Z,12.98
2019-03-09T13:04:59.800Z,12.99
2019-03-09T13:07:28.117Z,12.95
2019-03-09T13:09:56.175Z,12.75
2019-03-09T13:12:24.699Z,12.67
2019-03-09T13:14:52.791Z,12.64
2019-03-09T13:17:21.187Z,12.56
2019-03-09T13:19:49.422Z,13.11
2019-03-09T13:22:19.226Z,13.37
2019-03-09T13:24:47.204Z,13.31
2019-03-09T13:27:17.085Z,13.23
2019-03-09T13:29:45.126Z,12.75
2019-03-09T13:32:14.041Z,12.86
2019-03-09T13:34:42.393Z,12.80
2019-03-09T13:37:10.758Z,13.16
2019-03-09T13:39:39.023Z,13.35
2019-03-09T13:42:07.453Z,13.44
2019-03-09T13:44:35.649Z,13.02
2019-03-09T13:47:04.458Z,13.18
2019-03-09T13:49:32.852Z,13.13
2019-03-09T13:52:02.669Z,13.01
2019-03-09T13:54:31.313Z,12.73
2019-03-09T13:56:59.759Z,12.65
2019-03-09T13:59:28.178Z,12.51
2019-03-09T14:01:57.449Z,12.43
2019-03-09T14:04:25.920Z,12.41
2019-03-09T14:06:54.400Z,12.38
2019-03-09T14:09:22.429Z,12.30
2019-03-09T14:11:50.614Z,12.15
2019-03-09T14:14:19.712Z,11.98
2019-03-09T14:16:47.734Z,11.66
2019-03-09T14:19:15.795Z,11.55
2019-03-09T14:21:44.128Z,11.43
2019-03-09T14:24:12.442Z,11.41
2019-03-09T14:26:40.836Z,11.24
2019-03-09T14:29:09.306Z,11.26
2019-03-09T14:31:37.578Z,11.25
2019-03-09T14:34:07.168Z,11.40
2019-03-09T14:36:36.152Z,11.50
2019-03-09T14:39:04.872Z,11.46
2019-03-09T14:41:35.015Z,11.49
2019-03-09T14:44:03.309Z,11.37
2019-03-09T14:46:31.505Z,11.62
2019-03-09T14:48:59.948Z,11.55
2019-03-09T14:51:28.014Z,11.72
2019-03-09T14:53:56.134Z,11.61
2019-03-09T14:56:24.554Z,11.51
2019-03-09T14:58:52.986Z,11.72
2019-03-09T15:01:21.916Z,12.07
2019-03-09T15:03:50.489Z,12.61
2019-03-09T15:06:18.731Z,13.31
2019-03-09T15:08:46.856Z,13.81
2019-03-09T15:11:15.143Z,14.33
2019-03-09T15:13:43.188Z,14.05
2019-03-09T15:16:11.177Z,14.35
2019-03-09T15:18:39.266Z,14.37
2019-03-09T15:21:07.353Z,14.04
2019-03-09T15:23:35.974Z,13.41
2019-03-09T15:26:04.013Z,13.69
2019-03-09T15:28:32.172Z,13.87
2019-03-09T15:31:00.359Z,13.93
2019-03-09T15:33:28.436Z,14.21
2019-03-09T15:35:56.665Z,13.95
2019-03-09T15:38:25.088Z,13.08
2019-03-09T15:40:53.384Z,12.89
2019-03-09T15:43:23.391Z,12.52
2019-03-09T15:45:51.657Z,12.16
2019-03-09T15:48:20.933Z,12.43
2019-03-09T15:50:49.048Z,12.26
2019-03-09T15:53:17.118Z,12.03
2019-03-09T15:55:45.343Z,12.01
2019-03-09T15:58:13.418Z,11.76
2019-03-09T16:00:43.654Z,11.73
2019-03-09T16:03:11.688Z,11.77
2019-03-09T16:05:39.843Z,11.96
2019-03-09T16:08:08.069Z,11.97
2019-03-09T16:10:36.318Z,12.06
2019-03-09T16:13:04.632Z,12.13
2019-03-09T16:15:33.610Z,12.42
2019-03-09T16:18:01.788Z,12.53
2019-03-09T16:20:29.832Z,12.40
2019-03-09T16:22:59.705Z,12.29
2019-03-09T16:25:28.984Z,12.26
2019-03-09T16:27:57.355Z,12.34
2019-03-09T16:30:25.665Z,12.25
2019-03-09T16:32:53.693Z,12.23
2019-03-09T16:35:26.163Z,12.31
2019-03-09T16:37:54.839Z,12.38
2019-03-09T16:40:24.058Z,12.25
2019-03-09T16:42:52.180Z,12.24
2019-03-09T16:45:20.419Z,12.17
2019-03-09T16:47:48.510Z,12.08
2019-03-09T16:50:18.449Z,12.00
2019-03-09T16:52:46.636Z,11.85
2019-03-09T16:55:14.668Z,11.79
2019-03-09T16:57:42.796Z,11.88
2019-03-09T17:00:17.530Z,11.79
2019-03-09T17:02:46.007Z,11.82
2019-03-09T17:05:14.144Z,11.69
2019-03-09T17:07:42.253Z,11.72
2019-03-09T17:10:10.303Z,11.76
2019-03-09T17:12:38.500Z,11.71
2019-03-09T17:15:08.687Z,11.62
2019-03-09T17:17:37.706Z,11.56
2019-03-09T17:20:08.453Z,11.50
2019-03-09T17:22:36.826Z,11.47
2019-03-09T17:25:06.281Z,11.49
2019-03-09T17:27:49.441Z,11.49
2019-03-09T17:30:17.761Z,11.41
2019-03-09T17:32:52.510Z,11.47
2019-03-09T17:35:20.825Z,11.29
2019-03-09T17:37:48.911Z,11.40
2019-03-09T17:40:16.980Z,11.37
2019-03-09T17:42:45.137Z,11.42
2019-03-09T17:45:16.154Z,11.36
2019-03-09T17:47:45.395Z,11.45
2019-03-09T17:50:13.502Z,11.46
2019-03-09T17:52:42.185Z,11.46
2019-03-09T17:55:10.569Z,11.44
2019-03-09T17:57:38.818Z,11.51
2019-03-09T18:00:14.155Z,11.44
2019-03-09T18:02:42.246Z,11.48
2019-03-09T18:05:10.350Z,11.50
2019-03-09T18:07:39.578Z,11.53
2019-03-09T18:10:19.193Z,11.54
2019-03-09T18:12:47.323Z,11.56
2019-03-09T18:15:15.826Z,11.54
2019-03-09T18:17:43.984Z,11.51
2019-03-09T18:20:12.053Z,11.51
2019-03-09T18:22:40.484Z,11.57
2019-03-09T18:25:08.606Z,11.56
2019-03-09T18:27:36.657Z,11.59
2019-03-09T18:30:04.905Z,11.58
2019-03-09T18:32:33.178Z,11.56
2019-03-09T18:35:01.271Z,11.66
2019-03-09T18:37:29.427Z,11.63
2019-03-09T18:39:57.494Z,11.59
2019-03-09T18:42:25.642Z,11.56
2019-03-09T18:44:53.829Z,11.51
2019-03-09T18:47:24.270Z,11.52
2019-03-09T18:49:52.372Z,11.54
2019-03-09T18:52:20.752Z,11.60
2019-03-09T18:54:48.803Z,11.57
2019-03-09T18:57:17.000Z,11.61
2019-03-09T18:59:46.098Z,11.56
2019-03-09T19:02:14.120Z,11.50
2019-03-09T19:04:42.157Z,11.59
2019-03-09T19:07:10.370Z,11.59
2019-03-09T19:09:39.842Z,11.60
2019-03-09T19:12:08.145Z,11.61
2019-03-09T19:14:36.213Z,11.62
2019-03-09T19:17:04.625Z,11.62
2019-03-09T19:19:32.927Z,11.67
2019-03-09T19:22:01.042Z,11.66
2019-03-09T19:24:29.084Z,11.63
2019-03-09T19:26:57.496Z,11.61
2019-03-09T19:29:25.602Z,11.51
2019-03-09T19:31:54.877Z,11.64
2019-03-09T19:34:23.144Z,11.72
2019-03-09T19:36:52.352Z,11.66
2019-03-09T19:39:20.317Z,11.71
2019-03-09T19:41:49.509Z,11.72
2019-03-09T19:44:17.597Z,11.75
2019-03-09T19:46:45.773Z,11.84
2019-03-09T19:49:13.975Z,11.76
2019-03-09T19:51:42.278Z,11.79
2019-03-09T19:54:10.419Z,11.83
2019-03-09T19:56:38.700Z,11.84
2019-03-09T19:59:06.756Z,11.83
2019-03-09T20:01:34.873Z,11.87
2019-03-09T20:04:02.990Z,11.83
2019-03-09T20:06:31.233Z,11.84
2019-03-09T20:08:59.576Z,11.84
2019-03-09T20:11:27.831Z,11.88
2019-03-09T20:13:55.946Z,11.88
2019-03-09T20:16:23.994Z,11.90
2019-03-09T20:18:52.447Z,11.87
2019-03-09T20:21:20.486Z,11.95
2019-03-09T20:23:48.741Z,12.00
2019-03-09T20:26:16.821Z,11.89
2019-03-09T20:28:46.120Z,11.90
2019-03-09T20:31:14.405Z,11.93
2019-03-09T20:33:42.578Z,11.89
2019-03-09T20:36:10.548Z,11.95
2019-03-09T20:38:38.570Z,11.98
2019-03-09T20:41:06.769Z,11.92
2019-03-09T20:43:34.765Z,11.95
2019-03-09T20:46:03.314Z,11.91
2019-03-09T20:48:31.579Z,11.90
2019-03-09T20:50:59.992Z,11.90
2019-03-09T20:53:28.279Z,11.92
2019-03-09T20:55:56.431Z,11.86
2019-03-09T20:58:24.849Z,11.86
2019-03-09T21:00:54.564Z,11.83
2019-03-09T21:03:23.349Z,11.84
2019-03-09T21:05:51.605Z,11.79
2019-03-09T21:08:19.778Z,11.83
2019-03-09T21:10:48.180Z,11.76
2019-03-09T21:13:17.123Z,11.70
2019-03-09T21:15:45.148Z,11.70
2019-03-09T21:18:13.305Z,11.76
2019-03-09T21:20:41.706Z,11.64
2019-03-09T21:23:09.750Z,11.53
2019-03-09T21:25:38.027Z,11.48
2019-03-09T21:28:06.235Z,11.38
2019-03-09T21:30:34.590Z,11.42
2019-03-09T21:33:02.739Z,11.33
2019-03-09T21:35:31.840Z,11.39
2019-03-09T21:38:00.094Z,11.30
2019-03-09T21:40:28.373Z,11.36
2019-03-09T21:42:56.829Z,11.34
2019-03-09T21:45:24.993Z,11.42
2019-03-09T21:47:53.112Z,11.33
2019-03-09T21:50:21.242Z,11.34
2019-03-09T21:52:49.455Z,11.42
2019-03-09T21:55:18.012Z,11.41
2019-03-09T21:57:46.357Z,11.31
2019-03-09T22:00:15.105Z,11.37
2019-03-09T22:02:45.203Z,11.33
2019-03-09T22:05:13.389Z,11.37
2019-03-09T22:07:41.837Z,11.32
2019-03-09T22:10:09.997Z,11.38
2019-03-09T22:12:38.285Z,11.34
2019-03-09T22:15:08.988Z,11.31
2019-03-09T22:17:37.113Z,11.33
2019-03-09T22:20:07.451Z,11.33
2019-03-09T22:22:36.844Z,11.36
2019-03-09T22:25:06.895Z,11.33
2019-03-09T22:27:35.096Z,11.37
2019-03-09T22:30:04.019Z,11.37
2019-03-09T22:32:32.480Z,11.37
2019-03-09T22:35:03.952Z,11.40
2019-03-09T22:37:32.220Z,11.37
2019-03-09T22:40:01.747Z,11.34
2019-03-09T22:42:30.139Z,11.39
2019-03-09T22:45:00.351Z,11.43
2019-03-09T22:47:28.741Z,11.45
2019-03-09T22:49:58.354Z,11.42
2019-03-09T22:52:26.967Z,11.48
2019-03-09T22:54:55.594Z,11.45
2019-03-09T22:57:23.898Z,11.37
2019-03-09T22:59:52.101Z,11.49
2019-03-09T23:02:20.423Z,11.43
2019-03-09T23:04:48.711Z,11.38
2019-03-09T23:07:20.794Z,11.36
2019-03-09T23:09:49.022Z,11.46
2019-03-09T23:12:17.400Z,11.42
2019-03-09T23:14:46.597Z,11.48
2019-03-09T23:17:15.495Z,11.44
2019-03-09T23:19:44.361Z,11.47
2019-03-09T23:22:13.173Z,11.45
2019-03-09T23:24:41.218Z,11.44
2019-03-09T23:27:10.169Z,11.43
2019-03-09T23:29:38.419Z,11.41
2019-03-09T23:32:06.656Z,11.46
2019-03-09T23:34:34.998Z,11.43
2019-03-09T23:37:04.434Z,11.42
2019-03-09T23:39:32.573Z,11.45
2019-03-09T23:42:00.649Z,11.46
2019-03-09T23:44:28.934Z,11.37
2019-03-09T23:46:57.267Z,11.40
2019-03-09T23:49:26.985Z,11.38
2019-03-09T23:51:59.115Z,11.33
2019-03-09T23:54:28.430Z,11.25
2019-03-09T23:56:58.587Z,11.37
2019-03-09T23:59:26.708Z,11.37
